createdAt,value
2019-04-14T00:00:36.467Z,3.40
2019-04-14T00:03:34.754Z,3.20
2019-04-14T00:06:06.968Z,3.10
2019-04-14T00:08:37.265Z,3.30
2019-04-14T00:11:08.875Z,3.40
2019-04-14T00:13:39.278Z,3.20
2019-04-14T00:16:09.661Z,3.20
2019-04-14T00:18:40.415Z,3.30
2019-04-14T00:21:12.858Z,3.30
2019-04-14T00:23:45.653Z,3.20
2019-04-14T00:26:41.180Z,3.20
2019-04-14T00:29:17.345Z,3.10
2019-04-14T00:31:48.513Z,3.10
2019-04-14T00:34:44.113Z,3.10
2019-04-14T00:37:33.664Z,3.20
2019-04-14T00:40:13.528Z,3.10
2019-04-14T00:43:15.648Z,3.10
2019-04-14T00:45:51.176Z,3.10
2019-04-14T00:48:25.773Z,3.20
2019-04-14T00:50:56.180Z,3.10
2019-04-14T00:53:31.735Z,3.20
2019-04-14T00:56:04.098Z,3.10
2019-04-14T00:59:15.703Z,3.20
2019-04-14T01:01:43.791Z,3.20
2019-04-14T01:04:14.413Z,3.00
2019-04-14T01:06:44.974Z,3.00
2019-04-14T01:09:15.628Z,3.10
2019-04-14T01:12:19.148Z,3.10
2019-04-14T01:14:49.673Z,3.20
2019-04-14T01:17:20.136Z,3.20
2019-04-14T01:19:51.331Z,3.20
2019-04-14T01:22:57.472Z,3.10
2019-04-14T01:25:47.710Z,3.20
2019-04-14T01:28:17.882Z,3.20
2019-04-14T01:30:48.384Z,3.10
2019-04-14T01:33:20.579Z,3.20
2019-04-14T01:35:53.540Z,3.20
2019-04-14T01:38:31.980Z,3.20
2019-04-14T01:41:02.220Z,3.20
2019-04-14T01:43:32.456Z,3.10
2019-04-14T01:46:13.780Z,3.00
2019-04-14T01:48:34.658Z,3.00
2019-04-14T01:51:24.555Z,3.10
2019-04-14T01:54:23.495Z,3.00
2019-04-14T01:57:13.192Z,3.00
2019-04-14T01:59:43.881Z,3.10
2019-04-14T02:02:18.600Z,3.10
2019-04-14T02:04:50.705Z,3.10
2019-04-14T02:07:21.250Z,3.10
2019-04-14T02:09:51.451Z,3.00
2019-04-14T02:12:21.582Z,2.90
2019-04-14T02:14:52.092Z,2.90
2019-04-14T02:17:22.221Z,3.00
2019-04-14T02:19:52.494Z,3.00
2019-04-14T02:22:22.680Z,3.00
2019-04-14T02:24:53.136Z,3.00
2019-04-14T02:27:23.264Z,3.00
2019-04-14T02:29:53.844Z,2.90
2019-04-14T02:32:55.007Z,3.00
2019-04-14T02:40:36.452Z,3.10
2019-04-14T02:43:09.797Z,3.00
2019-04-14T02:48:41.917Z,3.10
2019-04-14T02:50:38.540Z,3.00
2019-04-14T02:53:15.277Z,3.10
2019-04-14T02:55:49.144Z,3.00
2019-04-14T02:58:28.502Z,3.10
2019-04-14T03:00:58.337Z,3.10
2019-04-14T03:06:01.094Z,3.10
2019-04-14T03:08:39.166Z,3.10
2019-04-14T03:11:01.340Z,3.10
2019-04-14T03:13:35.955Z,3.10
2019-04-14T03:21:40.584Z,3.10
2019-04-14T03:24:31.797Z,3.00
2019-04-14T03:27:13.440Z,3.10
2019-04-14T03:29:45.029Z,3.10
2019-04-14T03:35:23.186Z,3.10
2019-04-14T03:39:51.691Z,3.20
2019-04-14T03:42:38.323Z,3.30
2019-04-14T03:45:00.463Z,3.30
2019-04-14T03:47:24.952Z,3.20
2019-04-14T03:50:09.662Z,3.30
2019-04-14T03:52:43.451Z,3.40
2019-04-14T03:54:58.396Z,3.30
2019-04-14T03:57:14.918Z,3.10
2019-04-14T03:59:45.660Z,3.10
2019-04-14T04:02:18.276Z,3.10
2019-04-14T04:04:48.859Z,3.20
2019-04-14T04:07:19.962Z,3.30
2019-04-14T04:10:07.222Z,3.30
2019-04-14T04:12:40.009Z,3.30
2019-04-14T04:15:10.517Z,3.20
2019-04-14T04:18:02.810Z,3.20
2019-04-14T04:20:52.409Z,3.10
2019-04-14T04:23:29.208Z,3.10
2019-04-14T04:26:23.823Z,3.10
2019-04-14T04:29:04.747Z,3.10
2019-04-14T04:31:57.094Z,3.00
2019-04-14T04:35:04.339Z,3.10
2019-04-14T04:37:56.417Z,3.00
2019-04-14T04:40:29.125Z,3.10
2019-04-14T04:42:59.308Z,3.00
2019-04-14T04:45:29.996Z,3.10
2019-04-14T04:48:00.311Z,3.10
2019-04-14T04:50:32.918Z,3.00
2019-04-14T04:53:03.036Z,3.00
2019-04-14T04:55:33.175Z,3.10
2019-04-14T04:58:03.444Z,3.10
2019-04-14T05:00:33.650Z,3.10
2019-04-14T05:03:03.760Z,3.10
2019-04-14T05:06:22.300Z,3.00
2019-04-14T05:08:55.029Z,3.00
2019-04-14T05:11:31.652Z,3.00
2019-04-14T05:14:06.450Z,2.90
2019-04-14T05:16:37.331Z,2.80
2019-04-14T05:19:17.210Z,2.80
2019-04-14T05:21:41.169Z,2.80
2019-04-14T05:24:13.613Z,2.90
2019-04-14T05:26:46.001Z,2.80
2019-04-14T05:29:16.765Z,2.90
2019-04-14T05:31:49.043Z,2.90
2019-04-14T05:34:23.982Z,2.80
2019-04-14T05:36:54.223Z,2.80
2019-04-14T05:39:26.458Z,2.80
2019-04-14T05:42:07.676Z,2.80
2019-04-14T05:44:31.803Z,2.80
2019-04-14T05:47:04.319Z,2.90
2019-04-14T05:49:44.224Z,2.90
2019-04-14T05:52:11.927Z,2.90
2019-04-14T05:54:45.532Z,2.90
2019-04-14T05:57:15.785Z,2.90
2019-04-14T05:59:46.252Z,2.90
2019-04-14T06:02:18.060Z,3.00
2019-04-14T06:04:48.515Z,3.00
2019-04-14T06:07:20.921Z,3.10
2019-04-14T06:09:51.160Z,3.20
2019-04-14T06:12:21.334Z,3.20
2019-04-14T06:14:53.226Z,3.20
2019-04-14T06:17:24.352Z,3.20
2019-04-14T06:19:56.547Z,3.20
2019-04-14T06:22:29.631Z,3.10
2019-04-14T06:25:13.000Z,3.00
2019-04-14T06:27:44.159Z,3.00
2019-04-14T06:30:32.045Z,2.90
2019-04-14T06:33:07.829Z,3.00
2019-04-14T06:36:00.030Z,3.00
2019-04-14T06:38:33.217Z,3.00
2019-04-14T06:41:07.381Z,3.00
2019-04-14T06:43:48.382Z,3.10
2019-04-14T06:46:09.424Z,3.10
2019-04-14T06:48:39.580Z,3.10
2019-04-14T06:51:11.721Z,3.20
2019-04-14T06:53:41.925Z,3.50
2019-04-14T06:56:15.010Z,3.70
2019-04-14T06:58:45.435Z,3.90
2019-04-14T07:01:15.962Z,4.00
2019-04-14T07:03:50.278Z,3.90
2019-04-14T07:06:26.552Z,3.80
2019-04-14T07:08:58.806Z,3.70
2019-04-14T07:11:28.948Z,3.70
2019-04-14T07:13:59.088Z,3.80
2019-04-14T07:16:29.315Z,4.00
2019-04-14T07:18:59.460Z,4.00
2019-04-14T07:21:41.715Z,4.00
2019-04-14T07:24:16.483Z,4.10
2019-04-14T07:30:43.713Z,4.20
2019-04-14T07:33:35.818Z,4.20
2019-04-14T07:36:38.950Z,4.10
2019-04-14T07:39:28.086Z,4.00
2019-04-14T07:42:20.057Z,3.90
2019-04-14T07:45:10.236Z,3.90
2019-04-14T07:48:03.904Z,4.10
2019-04-14T07:50:43.887Z,4.30
2019-04-14T07:53:31.906Z,4.40
2019-04-14T07:56:37.129Z,4.50
2019-04-14T07:59:30.951Z,4.70
2019-04-14T08:02:38.150Z,4.80
2019-04-14T08:05:15.349Z,4.90
2019-04-14T08:07:46.148Z,5.00
2019-04-14T08:10:17.685Z,5.30
2019-04-14T08:12:48.235Z,5.30
2019-04-14T08:15:20.073Z,5.30
2019-04-14T08:17:53.698Z,5.30
2019-04-14T08:20:27.569Z,5.50
2019-04-14T08:23:04.496Z,5.60
2019-04-14T08:25:35.025Z,5.80
2019-04-14T08:28:06.317Z,5.60
2019-04-14T08:30:36.544Z,5.40
2019-04-14T08:33:08.040Z,5.50
2019-04-14T08:35:38.348Z,5.50
2019-04-14T08:38:09.244Z,5.80
2019-04-14T08:40:43.203Z,6.10
2019-04-14T08:43:33.921Z,6.20
2019-04-14T08:46:16.282Z,6.50
2019-04-14T08:49:18.725Z,6.70
2019-04-14T08:52:02.820Z,6.80
2019-04-14T08:57:51.608Z,7.00
2019-04-14T09:00:36.649Z,7.00
2019-04-14T09:03:34.741Z,7.00
2019-04-14T09:06:28.608Z,7.10
2019-04-14T09:09:13.802Z,7.00
2019-04-14T09:11:56.904Z,7.10
2019-04-14T09:14:29.070Z,6.80
2019-04-14T09:17:01.046Z,7.00
2019-04-14T09:19:33.360Z,7.10
2019-04-14T09:22:03.535Z,7.20
2019-04-14T09:24:34.592Z,7.30
2019-04-14T09:27:05.044Z,7.30
2019-04-14T09:29:35.921Z,7.20
2019-04-14T09:32:07.912Z,7.30
2019-04-14T09:34:38.067Z,7.40
2019-04-14T09:37:08.230Z,7.40
2019-04-14T09:39:38.338Z,7.40
2019-04-14T09:42:08.485Z,7.60
2019-04-14T09:44:38.616Z,7.70
2019-04-14T09:47:08.789Z,7.60
2019-04-14T09:49:38.868Z,7.30
2019-04-14T09:52:08.985Z,7.00
2019-04-14T09:54:39.177Z,7.10
2019-04-14T09:57:09.309Z,7.20
2019-04-14T09:59:39.466Z,7.20
2019-04-14T10:02:09.643Z,7.30
2019-04-14T10:04:41.194Z,7.10
2019-04-14T10:07:11.321Z,7.20
2019-04-14T10:09:41.543Z,7.50
2019-04-14T10:12:11.725Z,7.80
2019-04-14T10:14:41.898Z,7.80
2019-04-14T10:17:14.981Z,8.10
2019-04-14T10:19:45.136Z,8.10
2019-04-14T10:22:15.231Z,8.20
2019-04-14T10:24:46.508Z,8.30
2019-04-14T10:27:17.576Z,8.40
2019-04-14T10:30:03.033Z,8.50
2019-04-14T10:32:43.528Z,8.20
2019-04-14T10:35:12.771Z,8.40
2019-04-14T10:37:43.209Z,8.80
2019-04-14T10:40:13.425Z,8.90
2019-04-14T10:42:43.982Z,8.70
2019-04-14T10:45:14.452Z,9.20
2019-04-14T10:47:44.686Z,9.20
2019-04-14T10:50:29.755Z,9.40
2019-04-14T10:52:49.589Z,9.50
2019-04-14T10:55:21.736Z,9.70
2019-04-14T10:57:52.341Z,9.80
2019-04-14T11:00:23.499Z,9.70
2019-04-14T11:03:02.864Z,9.70
2019-04-14T11:05:57.722Z,9.90
2019-04-14T11:08:48.979Z,9.90
2019-04-14T11:11:23.026Z,9.80
2019-04-14T11:14:05.266Z,9.90
2019-04-14T11:16:38.954Z,9.90
2019-04-14T11:19:10.975Z,9.80
2019-04-14T11:21:51.270Z,9.90
2019-04-14T11:35:04.777Z,10.60
2019-04-14T11:37:54.885Z,10.70
2019-04-14T11:40:34.662Z,10.70
2019-04-14T11:54:21.396Z,12.20
2019-04-14T12:04:01.782Z,10.70
2019-04-14T12:07:56.066Z,10.70
2019-04-14T12:15:17.294Z,10.50
2019-04-14T12:21:34.042Z,11.10
2019-04-14T12:24:09.740Z,11.10
2019-04-14T12:26:44.570Z,11.00
2019-04-14T12:29:14.725Z,11.10
2019-04-14T12:31:46.579Z,11.30
2019-04-14T12:34:18.526Z,11.20
2019-04-14T12:36:48.808Z,11.00
2019-04-14T12:39:23.931Z,11.40
2019-04-14T12:42:12.203Z,11.50
2019-04-14T12:45:01.018Z,11.40
2019-04-14T12:47:42.638Z,11.20
2019-04-14T12:50:38.224Z,10.70
2019-04-14T12:53:08.378Z,10.80
2019-04-14T12:55:38.485Z,11.10
2019-04-14T12:58:12.011Z,11.80
2019-04-14T13:01:08.578Z,12.00
2019-04-14T13:03:41.972Z,11.90
2019-04-14T13:06:13.320Z,11.30
2019-04-14T13:08:45.037Z,10.70
2019-04-14T13:11:15.192Z,10.20
2019-04-14T13:13:46.319Z,10.00
2019-04-14T13:16:16.745Z,10.30
2019-04-14T13:18:47.196Z,10.30
2019-04-14T13:21:17.365Z,10.70
2019-04-14T13:23:47.479Z,11.00
2019-04-14T13:26:17.618Z,11.10
2019-04-14T13:28:47.808Z,11.20
2019-04-14T13:31:17.923Z,11.40
2019-04-14T13:33:49.138Z,11.50
2019-04-14T13:36:19.637Z,11.30
2019-04-14T13:38:50.881Z,11.10
2019-04-14T13:41:23.328Z,11.20
2019-04-14T13:43:55.993Z,11.50
2019-04-14T13:46:26.156Z,11.60
2019-04-14T13:48:56.285Z,11.30
2019-04-14T13:51:26.448Z,11.00
2019-04-14T13:53:57.089Z,11.50
2019-04-14T13:56:29.147Z,12.10
2019-04-14T13:58:59.509Z,12.40
2019-04-14T14:01:31.001Z,12.50
2019-04-14T14:04:01.958Z,11.90
2019-04-14T14:06:35.280Z,11.80
2019-04-14T14:09:10.634Z,11.60
2019-04-14T14:12:00.566Z,12.00
2019-04-14T14:14:58.700Z,12.80
2019-04-14T14:17:46.928Z,13.60
2019-04-14T14:20:39.368Z,13.90
2019-04-14T14:23:28.457Z,14.00
2019-04-14T14:26:05.771Z,13.10
2019-04-14T14:28:38.552Z,13.20
2019-04-14T14:31:18.484Z,13.40
2019-04-14T14:33:52.039Z,12.80
2019-04-14T14:36:22.737Z,13.10
2019-04-14T14:38:53.249Z,13.70
2019-04-14T14:41:23.805Z,14.70
2019-04-14T14:43:53.949Z,15.10
2019-04-14T14:46:52.221Z,15.20
2019-04-14T14:49:34.277Z,16.00
2019-04-14T14:52:07.961Z,16.50
2019-04-14T14:54:44.893Z,15.80
2019-04-14T14:57:15.468Z,14.90
2019-04-14T14:59:45.568Z,13.70
2019-04-14T15:02:19.011Z,12.70
2019-04-14T15:04:49.588Z,12.20
2019-04-14T15:07:20.031Z,12.00
2019-04-14T15:09:50.645Z,12.70
2019-04-14T15:12:20.786Z,13.30
2019-04-14T15:14:51.215Z,14.00
2019-04-14T15:17:23.676Z,13.10
2019-04-14T15:19:54.202Z,12.60
2019-04-14T15:22:24.353Z,12.40
2019-04-14T15:24:54.470Z,12.20
2019-04-14T15:27:24.924Z,12.00
2019-04-14T15:29:55.037Z,11.50
2019-04-14T15:32:26.699Z,11.50
2019-04-14T15:34:56.920Z,11.60
2019-04-14T15:37:28.528Z,12.30
2019-04-14T15:39:58.669Z,13.30
2019-04-14T15:42:28.840Z,14.70
2019-04-14T15:44:58.993Z,15.50
2019-04-14T15:47:30.957Z,14.90
2019-04-14T15:50:03.944Z,12.90
2019-04-14T15:55:09.339Z,11.70
2019-04-14T15:57:51.947Z,11.10
2019-04-14T16:00:46.853Z,10.50
2019-04-14T16:03:31.016Z,10.30
2019-04-14T16:06:20.124Z,10.30
2019-04-14T16:09:28.796Z,10.50
2019-04-14T16:12:18.442Z,10.50
2019-04-14T16:15:11.131Z,10.60
2019-04-14T16:17:52.886Z,10.30
2019-04-14T16:20:41.209Z,10.40
2019-04-14T16:23:23.383Z,10.40
2019-04-14T16:26:10.508Z,10.30
2019-04-14T16:29:11.114Z,10.00
2019-04-14T16:32:00.466Z,9.90
2019-04-14T16:34:51.209Z,9.90
2019-04-14T16:37:24.584Z,9.80
2019-04-14T16:39:57.455Z,9.50
2019-04-14T16:42:30.716Z,9.50
2019-04-14T16:45:04.235Z,9.50
2019-04-14T16:47:38.556Z,9.50
2019-04-14T16:50:11.159Z,9.50
2019-04-14T16:52:50.211Z,9.40
2019-04-14T16:55:41.475Z,9.30
2019-04-14T16:58:34.740Z,9.30
2019-04-14T17:01:11.704Z,9.20
2019-04-14T17:03:42.540Z,9.20
2019-04-14T17:06:14.705Z,9.20
2019-04-14T17:08:45.459Z,9.20
2019-04-14T17:11:24.274Z,9.20
2019-04-14T17:14:07.822Z,9.10
2019-04-14T17:17:17.468Z,8.90
2019-04-14T17:20:06.976Z,8.90
2019-04-14T17:22:51.539Z,8.90
2019-04-14T17:25:29.737Z,8.90
2019-04-14T17:28:23.307Z,8.80
2019-04-14T17:31:06.737Z,8.80
2019-04-14T17:34:03.392Z,8.70
2019-04-14T17:36:49.101Z,8.70
2019-04-14T17:39:36.968Z,8.60
2019-04-14T17:42:28.777Z,8.50
2019-04-14T17:45:09.235Z,8.40
2019-04-14T17:48:11.186Z,8.30
2019-04-14T17:50:54.395Z,8.20
2019-04-14T17:53:48.865Z,8.10
2019-04-14T17:56:55.644Z,8.00
2019-04-14T17:59:39.124Z,7.90
2019-04-14T18:02:44.780Z,7.90
2019-04-14T18:05:31.786Z,7.70
2019-04-14T18:08:24.199Z,7.60
2019-04-14T18:11:03.026Z,7.50
2019-04-14T18:13:51.829Z,7.40
2019-04-14T18:16:45.174Z,7.30
2019-04-14T18:19:33.315Z,7.30
2019-04-14T18:22:05.090Z,7.10
2019-04-14T18:24:42.078Z,7.10
2019-04-14T18:27:07.409Z,7.10
2019-04-14T18:29:57.967Z,7.00
2019-04-14T18:32:40.518Z,6.90
2019-04-14T18:35:17.658Z,6.80
2019-04-14T18:38:07.243Z,6.60
2019-04-14T18:40:49.962Z,6.60
2019-04-14T18:43:38.020Z,6.50
2019-04-14T18:46:12.640Z,6.50
2019-04-14T18:49:00.639Z,6.40
2019-04-14T18:51:44.792Z,6.40
2019-04-14T18:54:55.116Z,6.30
2019-04-14T18:57:43.842Z,6.20
2019-04-14T19:00:35.970Z,6.10
2019-04-14T19:03:07.724Z,6.00
2019-04-14T19:05:42.692Z,5.90
2019-04-14T19:08:13.218Z,5.90
2019-04-14T19:10:46.087Z,5.80
2019-04-14T19:13:28.768Z,5.70
2019-04-14T19:16:13.995Z,5.60
2019-04-14T19:18:49.033Z,5.50
2019-04-14T19:21:26.900Z,5.50
2019-04-14T19:23:59.453Z,5.40
2019-04-14T19:26:30.097Z,5.30
2019-04-14T19:29:01.545Z,5.20
2019-04-14T19:31:32.802Z,5.20
2019-04-14T19:34:06.296Z,5.10
2019-04-14T19:36:38.694Z,5.00
2019-04-14T19:39:11.476Z,4.90
2019-04-14T19:41:44.169Z,4.90
2019-04-14T19:44:17.418Z,4.80
2019-04-14T19:51:55.917Z,4.20
2019-04-14T19:54:29.743Z,4.00
2019-04-14T19:57:04.438Z,3.60
2019-04-14T19:59:35.081Z,3.40
2019-04-14T20:02:05.792Z,3.30
2019-04-14T20:04:36.481Z,3.20
2019-04-14T20:07:10.130Z,3.00
2019-04-14T20:09:40.464Z,3.00
2019-04-14T20:12:14.855Z,3.10
2019-04-14T20:14:45.137Z,3.10
2019-04-14T20:17:42.512Z,3.10
2019-04-14T20:20:49.557Z,3.10
2019-04-14T20:23:40.799Z,3.00
2019-04-14T20:26:31.659Z,2.90
2019-04-14T20:29:11.218Z,2.90
2019-04-14T20:31:54.255Z,2.80
2019-04-14T20:34:29.236Z,2.60
2019-04-14T20:37:06.870Z,2.50
2019-04-14T20:39:39.311Z,2.50
2019-04-14T20:42:10.649Z,2.40
2019-04-14T20:44:44.195Z,2.30
2019-04-14T20:47:20.763Z,2.20
2019-04-14T20:49:51.747Z,2.20
2019-04-14T20:52:34.324Z,2.20
2019-04-14T20:55:11.463Z,2.30
2019-04-14T20:57:45.564Z,2.30
2019-04-14T21:00:16.096Z,2.10
2019-04-14T21:03:27.725Z,2.10
2019-04-14T21:06:19.129Z,1.80
2019-04-14T21:09:19.935Z,1.90
2019-04-14T21:12:08.864Z,1.80
2019-04-14T21:15:16.646Z,1.60
2019-04-14T21:18:31.227Z,1.40
2019-04-14T21:21:14.367Z,1.30
2019-04-14T21:24:07.261Z,1.40
2019-04-14T21:27:06.737Z,1.40
2019-04-14T21:29:57.182Z,1.30
2019-04-14T21:32:53.427Z,1.30
2019-04-14T21:35:47.383Z,1.10
2019-04-14T21:41:25.569Z,1.20
2019-04-14T21:44:01.922Z,1.20
2019-04-14T21:46:32.632Z,1.30
2019-04-14T21:49:04.135Z,1.20
2019-04-14T21:51:53.673Z,1.10
2019-04-14T21:54:25.077Z,1.10
2019-04-14T21:57:31.406Z,1.10
2019-04-14T22:00:34.788Z,1.00
2019-04-14T22:03:28.984Z,1.10
2019-04-14T22:06:21.011Z,0.90
2019-04-14T22:08:55.423Z,1.10
2019-04-14T22:11:33.306Z,0.90
2019-04-14T22:17:10.043Z,0.90
2019-04-14T22:19:43.109Z,1.10
2019-04-14T22:22:16.888Z,1.10
2019-04-14T22:24:51.626Z,1.10
2019-04-14T22:27:35.169Z,1.10
2019-04-14T22:30:10.723Z,1.10
2019-04-14T22:32:55.005Z,1.10
2019-04-14T22:35:29.948Z,1.00
2019-04-14T22:38:05.418Z,0.90
2019-04-14T22:40:55.900Z,0.70
2019-04-14T22:43:35.776Z,0.50
2019-04-14T22:46:14.607Z,0.40
2019-04-14T22:48:48.396Z,0.50
2019-04-14T22:51:24.680Z,0.50
2019-04-14T22:53:56.599Z,0.50
2019-04-14T22:56:38.569Z,0.60
2019-04-14T22:59:10.691Z,0.60
2019-04-14T23:01:48.280Z,0.50
2019-04-14T23:04:47.257Z,0.30
2019-04-14T23:07:46.132Z,0.30
2019-04-14T23:10:34.277Z,0.30
2019-04-14T23:13:14.664Z,0.30
2019-04-14T23:16:08.169Z,0.30
2019-04-14T23:18:48.178Z,0.20
2019-04-14T23:21:37.527Z,0.30
2019-04-14T23:24:26.221Z,0.30
2019-04-14T23:26:57.894Z,0.30
2019-04-14T23:29:41.593Z,0.40
2019-04-14T23:32:13.305Z,0.30
2019-04-14T23:34:47.301Z,0.40
2019-04-14T23:37:20.101Z,0.50
2019-04-14T23:39:52.273Z,0.50
2019-04-14T23:42:24.535Z,0.60
2019-04-14T23:44:55.538Z,0.40
2019-04-14T23:47:46.698Z,0.20
2019-04-14T23:50:18.324Z,0.10
2019-04-14T23:52:53.112Z,0.10
2019-04-14T23:55:33.159Z,0.00
2019-04-14T23:58:07.929Z,-0.10
